Time;durP1;ratioP1;P1;durP2;ratioP2;P2;SDS_P1;SDS_P2;PMS_P1;PMS_P2;Temp;Humidity;BMP_temperature;BMP_pressure;BME280_temperature;BME280_humidity;BME280_pressure;Samples;Min_cycle;Max_cycle;Signal;HPM_P1;HPM_P2
2021/01/20 00:01:22;;;;;;;161.77;49.73;;;;;;;0.41;34.83;151225.62;1730476;81;21680;-82
2021/01/20 00:03:55;;;;;;;208.02;57.40;;;;;;;0.35;35.00;151208.75;1735320;81;21225;-83
2021/01/20 00:06:27;;;;;;;209.85;59.85;;;;;;;0.45;35.15;151234.75;1729700;81;21581;-81
2021/01/20 00:09:00;;;;;;;198.95;55.50;;;;;;;0.40;34.94;151221.75;1729796;81;21199;-82
2021/01/20 00:11:33;;;;;;;180.07;51.40;;;;;;;0.52;35.13;151254.19;1729684;81;21161;-82
2021/01/20 00:14:05;;;;;;;188.03;55.43;;;;;;;0.55;35.25;151260.70;1753024;81;21339;-81
2021/01/20 00:16:39;;;;;;;198.93;56.75;;;;;;;0.59;35.17;151272.38;1729561;81;21200;-82
2021/01/20 00:19:12;;;;;;;207.50;57.33;;;;;;;0.56;34.88;151264.58;1729984;81;21211;-82
2021/01/20 00:21:45;;;;;;;199.40;53.75;;;;;;;0.48;35.07;151242.50;1729524;81;21704;-82
2021/01/20 00:24:18;;;;;;;172.90;52.25;;;;;;;0.42;35.40;151226.95;1729543;81;21216;-80
2021/01/20 00:26:50;;;;;;;192.20;55.95;;;;;;;0.50;35.50;151247.70;1729891;81;21703;-81
2021/01/20 00:29:23;;;;;;;191.43;55.65;;;;;;;0.60;35.54;151274.98;1730461;81;21172;-80
2021/01/20 00:31:57;;;;;;;177.40;54.27;;;;;;;0.64;35.37;151284.06;1729727;81;21176;-79
2021/01/20 00:34:30;;;;;;;157.75;48.60;;;;;;;0.60;35.31;151274.98;1729653;81;22161;-76
2021/01/20 00:37:03;;;;;;;146.30;43.75;;;;;;;0.58;35.38;151269.78;1731189;81;21711;-78
2021/01/20 00:39:36;;;;;;;141.80;45.58;;;;;;;0.55;35.13;151261.98;1734360;81;21180;-78
2021/01/20 00:42:09;;;;;;;134.18;43.50;;;;;;;0.44;35.08;151232.16;1753200;81;21149;-77
2021/01/20 00:44:42;;;;;;;135.00;44.10;;;;;;;0.39;35.20;151219.16;1729459;81;21172;-77
2021/01/20 00:47:15;;;;;;;127.15;39.27;;;;;;;0.32;35.14;151202.28;1729408;81;21216;-78
2021/01/20 00:49:49;;;;;;;131.57;41.63;;;;;;;0.34;35.12;151207.48;1723698;81;21685;-77
2021/01/20 00:52:22;;;;;;;139.82;44.15;;;;;;;0.28;35.09;151191.94;1722512;83;21705;-78
2021/01/20 00:54:55;;;;;;;136.28;42.88;;;;;;;0.29;35.06;151194.48;1783690;80;21318;-77
2021/01/20 00:57:27;;;;;;;144.57;43.63;;;;;;;0.30;35.19;151195.81;1783649;80;21300;-77
2021/01/20 01:00:01;;;;;;;139.28;44.35;;;;;;;0.28;34.88;151191.94;1783809;80;21182;-78
2021/01/20 01:02:36;;;;;;;143.35;42.62;;;;;;;0.20;34.86;151169.86;1754901;80;21292;-77
2021/01/20 01:05:11;;;;;;;141.88;41.70;;;;;;;0.17;34.95;151162.06;1774699;80;21300;-77
2021/01/20 01:07:44;;;;;;;127.17;38.35;;;;;;;0.25;34.77;151184.12;1783505;80;21819;-77
2021/01/20 01:10:17;;;;;;;133.52;40.20;;;;;;;0.08;34.95;151140.00;1783735;80;21361;-77
2021/01/20 01:13:07;;;;;;;123.58;38.30;;;;;;;0.02;35.23;151123.12;1783024;80;21301;-77
2021/01/20 01:15:41;;;;;;;107.70;34.35;;;;;;;0.01;35.57;151121.86;1783495;80;21327;-77
2021/01/20 01:18:14;;;;;;;114.95;36.75;;;;;;;0.08;35.29;151138.72;1764950;80;21395;-77
2021/01/20 01:20:47;;;;;;;129.03;35.68;;;;;;;0.03;35.14;151125.72;1783744;80;21217;-77
2021/01/20 01:23:20;;;;;;;142.57;38.83;;;;;;;-0.02;35.23;151114.06;1783582;80;21708;-77
2021/01/20 01:25:56;;;;;;;108.97;36.03;;;;;;;-0.01;35.18;151115.37;1755688;80;21364;-77
2021/01/20 01:28:29;;;;;;;116.95;38.05;;;;;;;-0.03;35.17;151110.19;1698517;83;21331;-77
2021/01/20 01:31:06;;;;;;;142.75;37.90;;;;;;;-0.09;35.01;151093.31;1722789;82;21307;-77
2021/01/20 01:33:39;;;;;;;148.97;42.83;;;;;;;-0.17;34.90;151072.58;1698448;83;21207;-77
2021/01/20 01:36:12;;;;;;;149.90;40.43;;;;;;;-0.30;34.90;151040.13;1722396;82;21178;-78
2021/01/20 01:38:45;;;;;;;151.78;42.17;;;;;;;-0.38;34.90;151018.06;1723924;83;21194;-77
2021/01/20 01:41:19;;;;;;;137.57;42.80;;;;;;;-0.41;34.83;151010.33;1784915;80;21174;-78
2021/01/20 01:43:58;;;;;;;145.87;44.38;;;;;;;-0.48;34.84;150992.16;1784519;80;21166;-77
2021/01/20 01:46:35;;;;;;;133.65;41.70;;;;;;;-0.56;34.74;150972.69;1784644;80;21335;-76
2021/01/20 01:49:26;;;;;;;151.45;42.75;;;;;;;-0.58;34.88;150966.22;1781992;80;21364;-77
2021/01/20 01:52:02;;;;;;;134.50;40.45;;;;;;;-0.57;34.61;150968.81;1771070;80;21383;-77
2021/01/20 01:54:43;;;;;;;144.15;39.75;;;;;;;-0.63;34.74;150954.56;1756922;81;21322;-77
2021/01/20 01:57:30;;;;;;;135.65;42.08;;;;;;;-0.62;34.83;150955.83;1709039;82;21877;-78
2021/01/20 02:00:08;;;;;;;148.72;41.55;;;;;;;-0.65;34.78;150948.09;1728603;83;21374;-77
2021/01/20 02:02:58;;;;;;;128.18;37.73;;;;;;;-0.64;34.79;150951.97;1735545;81;21377;-76
2021/01/20 02:05:32;;;;;;;136.77;43.17;;;;;;;-0.63;34.66;150954.56;1728472;83;21227;-76
2021/01/20 02:08:05;;;;;;;129.50;39.75;;;;;;;-0.68;34.73;150940.30;1756359;80;21174;-76
2021/01/20 02:10:43;;;;;;;147.57;45.80;;;;;;;-0.69;34.70;150938.97;1772623;80;21201;-77
2021/01/20 02:13:34;;;;;;;134.20;40.85;;;;;;;-0.76;34.52;150919.58;1785402;80;21237;-76
2021/01/20 02:16:23;;;;;;;129.53;39.88;;;;;;;-0.77;34.82;150916.98;1669323;81;21329;-75
2021/01/20 02:18:57;;;;;;;;;;;;;;;-0.70;35.00;150936.44;1759403;81;21179;-76
2021/01/20 02:21:48;;;;;;;140.30;41.30;;;;;;;-0.65;34.99;150949.36;1757027;79;20176;-75
2021/01/20 02:25:07;;;;;;;148.70;47.83;;;;;;;-0.48;35.06;150993.47;1756904;81;21318;-76
2021/01/20 02:27:58;;;;;;;155.07;44.80;;;;;;;-0.39;34.84;151015.47;1778939;80;21210;-77
2021/01/20 02:30:32;;;;;;;158.60;46.25;;;;;;;-0.35;34.66;151025.88;1773486;80;21733;-76
2021/01/20 02:33:24;;;;;;;143.00;45.58;;;;;;;-0.38;34.52;151018.06;1783745;80;21823;-76
2021/01/20 02:36:03;;;;;;;156.32;42.73;;;;;;;-0.39;34.69;151016.80;1782309;80;21697;-76
2021/01/20 02:38:38;;;;;;;126.22;38.58;;;;;;;-0.36;34.63;151024.59;1770904;80;21310;-76
2021/01/20 02:41:24;;;;;;;119.93;38.08;;;;;;;-0.32;34.83;151034.94;1735967;80;21347;-77
2021/01/20 02:44:07;;;;;;;110.40;37.25;;;;;;;-0.20;34.89;151066.06;1782864;80;21360;-77
2021/01/20 02:46:51;;;;;;;115.03;36.85;;;;;;;-0.23;34.62;151058.27;1692297;81;21367;-76
2021/01/20 02:49:29;;;;;;;116.10;33.48;;;;;;;-0.26;34.77;151050.52;1768605;80;21297;-76
2021/01/20 02:52:49;;;;;;;100.70;32.73;;;;;;;-0.18;35.07;151071.25;1785074;80;21379;-76
2021/01/20 02:55:41;;;;;;;105.50;31.48;;;;;;;-0.08;35.02;151097.19;1776006;80;21809;-77
2021/01/20 02:58:33;;;;;;;90.22;32.78;;;;;;;-0.03;35.13;151108.86;1756974;81;21322;-77
2021/01/20 03:01:07;;;;;;;93.00;31.15;;;;;;;-0.01;34.94;151115.37;1753647;81;21330;-77
2021/01/20 03:03:38;;;;;;;82.45;28.20;;;;;;;0.01;35.10;151120.53;1757150;80;21294;-76
2021/01/20 03:06:10;;;;;;;97.57;34.23;;;;;;;0.03;34.83;151127.06;1766843;80;21293;-76
2021/01/20 03:08:44;;;;;;;106.92;33.55;;;;;;;-0.09;34.56;151093.31;1783386;80;21713;-75
2021/01/20 03:11:16;;;;;;;96.42;31.20;;;;;;;-0.19;34.67;151068.66;1785331;80;21244;-76
2021/01/20 03:13:48;;;;;;;93.42;32.83;;;;;;;-0.19;34.78;151067.37;1785274;80;21233;-76
2021/01/20 03:16:26;;;;;;;85.80;29.65;;;;;;;-0.21;34.76;151062.19;1761267;80;21301;-76
2021/01/20 03:18:58;;;;;;;94.60;29.80;;;;;;;-0.24;34.69;151055.72;1754523;80;21376;-76
2021/01/20 03:21:30;;;;;;;91.45;29.87;;;;;;;-0.27;34.75;151047.92;1748384;82;21831;-77
2021/01/20 03:24:02;;;;;;;88.27;29.63;;;;;;;-0.23;34.47;151058.27;1748441;82;21347;-77
2021/01/20 03:26:34;;;;;;;95.55;27.25;;;;;;;-0.32;34.31;151034.94;1748448;82;21182;-77
2021/01/20 03:29:06;;;;;;;105.55;32.70;;;;;;;-0.41;34.18;151010.33;1775593;80;21190;-76
2021/01/20 03:31:38;;;;;;;120.53;36.40;;;;;;;-0.54;34.25;150976.61;1756924;81;21314;-76
2021/01/20 03:34:10;;;;;;;121.53;37.42;;;;;;;-0.65;34.49;150948.09;1766379;80;21741;-77
2021/01/20 03:36:42;;;;;;;126.27;36.40;;;;;;;-0.70;34.30;150936.44;1779798;80;21287;-77
2021/01/20 03:39:14;;;;;;;126.58;36.35;;;;;;;-0.83;33.95;150902.72;1771851;80;21312;-78
2021/01/20 03:41:46;;;;;;;133.97;38.55;;;;;;;-0.98;34.01;150862.50;1754922;80;21162;-77
2021/01/20 03:44:18;;;;;;;117.28;34.03;;;;;;;-1.07;34.12;150839.19;1692792;83;21329;-77
2021/01/20 03:46:51;;;;;;;125.22;35.08;;;;;;;-1.07;34.35;150837.91;1704142;83;21325;-77
2021/01/20 03:49:24;;;;;;;122.82;37.13;;;;;;;-1.06;34.26;150840.50;1723202;82;21327;-77
2021/01/20 03:51:56;;;;;;;115.92;34.53;;;;;;;-1.10;34.41;150830.13;1697263;83;21340;-78
2021/01/20 03:54:28;;;;;;;103.60;35.25;;;;;;;-1.12;34.29;150824.94;1715967;83;21194;-77
2021/01/20 03:57:00;;;;;;;113.05;35.35;;;;;;;-1.12;34.47;150826.27;1700493;83;21855;-77
2021/01/20 03:59:32;;;;;;;92.85;32.93;;;;;;;-1.06;34.48;150840.50;1670100;84;21234;-77
2021/01/20 04:02:05;;;;;;;115.72;35.00;;;;;;;-1.06;34.31;150840.50;1693110;83;21205;-77
2021/01/20 04:04:39;;;;;;;109.72;33.05;;;;;;;-1.07;34.26;150839.19;1693056;83;21162;-77
2021/01/20 04:07:13;;;;;;;96.28;32.42;;;;;;;-1.09;34.33;150832.72;1699825;83;21265;-77
2021/01/20 04:09:45;;;;;;;99.10;34.05;;;;;;;-1.14;34.56;150819.75;1695905;83;21233;-77
2021/01/20 04:12:18;;;;;;;121.33;37.55;;;;;;;-1.09;34.79;150834.00;1693102;83;21222;-78
2021/01/20 04:14:51;;;;;;;123.78;35.70;;;;;;;-0.92;34.92;150879.36;1702880;83;21229;-77
2021/01/20 04:17:24;;;;;;;140.35;40.08;;;;;;;-0.79;34.85;150913.06;1728519;83;21229;-77
2021/01/20 04:19:57;;;;;;;125.72;37.03;;;;;;;-0.72;34.65;150931.23;1716920;83;21204;-77
2021/01/20 04:22:30;;;;;;;107.87;34.90;;;;;;;-0.70;34.76;150936.44;1685898;85;21368;-76
2021/01/20 04:25:04;;;;;;;116.12;34.53;;;;;;;-0.63;34.85;150953.23;1669108;86;21859;-77
2021/01/20 04:27:36;;;;;;;131.55;36.80;;;;;;;-0.58;34.84;150966.22;1685754;85;21257;-77
2021/01/20 04:30:10;;;;;;;114.92;34.67;;;;;;;-0.63;34.75;150954.56;1681794;84;21224;-77
2021/01/20 04:32:43;;;;;;;103.42;31.55;;;;;;;-0.70;34.79;150935.11;1716006;83;21245;-76
2021/01/20 04:35:17;;;;;;;102.55;30.82;;;;;;;-0.79;34.81;150913.06;1698256;84;21216;-77
2021/01/20 04:37:50;;;;;;;104.67;33.20;;;;;;;-0.82;35.06;150905.31;1715984;83;21760;-77
2021/01/20 04:40:22;;;;;;;106.32;34.08;;;;;;;-0.80;35.03;150909.19;1728907;83;21169;-75
2021/01/20 04:42:55;;;;;;;115.15;37.08;;;;;;;-0.80;35.09;150909.19;1729032;83;21189;-76
2021/01/20 04:45:28;;;;;;;113.25;34.90;;;;;;;-0.80;35.06;150909.19;1687441;85;21261;-75
2021/01/20 04:48:01;;;;;;;90.60;30.23;;;;;;;-0.77;35.18;150918.25;1704850;83;21216;-75
2021/01/20 04:50:36;;;;;;;99.00;32.40;;;;;;;-0.71;35.26;150933.84;1728898;83;21169;-76
2021/01/20 04:53:11;;;;;;;101.42;32.67;;;;;;;-0.61;35.24;150959.75;1727800;83;21240;-89
2021/01/20 04:55:45;;;;;;;123.75;33.73;;;;;;;-0.56;35.44;150972.69;1727136;83;21361;-77
2021/01/20 04:58:17;;;;;;;110.50;32.95;;;;;;;-0.47;35.59;150996.06;1760114;80;21317;-80
2021/01/20 05:00:51;;;;;;;135.78;40.45;;;;;;;-0.38;35.33;151019.39;1784828;80;21641;-76
2021/01/20 05:03:24;;;;;;;131.50;45.10;;;;;;;-0.38;34.90;151019.39;1726499;81;21813;-73
2021/01/20 05:05:57;;;;;;;119.55;39.00;;;;;;;-0.50;34.81;150986.95;1766879;79;21399;-79
2021/01/20 05:08:30;;;;;;;107.47;31.87;;;;;;;-0.55;34.89;150975.28;1759247;80;21186;-82
2021/01/20 05:11:04;;;;;;;100.95;31.00;;;;;;;-0.53;34.91;150979.20;1763612;80;21419;-78
2021/01/20 05:13:36;;;;;;;106.83;33.85;;;;;;;-0.58;34.76;150966.22;1758556;80;22088;-76
2021/01/20 05:16:10;;;;;;;108.10;33.25;;;;;;;-0.67;34.55;150944.17;1758058;80;21390;-78
2021/01/20 05:18:49;;;;;;;108.45;29.70;;;;;;;-0.76;34.53;150920.84;1733982;80;21818;-76
2021/01/20 05:21:21;;;;;;;80.83;27.53;;;;;;;-0.84;34.40;150900.12;1756998;80;21174;-76
2021/01/20 05:23:54;;;;;;;98.10;28.65;;;;;;;-1.01;34.43;150854.77;1775960;79;21359;-73
2021/01/20 05:26:31;;;;;;;87.78;29.02;;;;;;;-1.06;34.52;150840.50;1756164;80;21233;-73
2021/01/20 05:29:05;;;;;;;92.33;28.95;;;;;;;-1.08;34.70;150835.31;1752823;80;21808;-74
2021/01/20 05:31:38;;;;;;;96.42;30.17;;;;;;;-1.07;34.72;150837.91;1734756;80;21332;-73
2021/01/20 05:34:26;;;;;;;117.17;36.08;;;;;;;-1.04;34.59;150845.70;1742850;80;21335;-74
2021/01/20 05:37:10;;;;;;;114.92;36.08;;;;;;;-1.00;34.66;150856.03;1785187;80;21349;-74
2021/01/20 05:39:43;;;;;;;115.62;33.73;;;;;;;-1.05;34.41;150843.11;1785272;80;21221;-73
2021/01/20 05:45:53;;;;;;;107.45;34.20;;;;;;;-1.12;34.58;150826.27;1764127;80;21613;-73
2021/01/20 05:48:26;;;;;;;114.85;41.00;;;;;;;-1.25;34.20;150792.56;1778800;80;21829;-74
2021/01/20 05:50:59;;;;;;;124.50;39.00;;;;;;;-1.32;34.35;150773.13;1757058;80;21305;-74
2021/01/20 05:53:32;;;;;;;125.27;41.23;;;;;;;-1.32;34.50;150773.13;1767288;80;21380;-73
2021/01/20 05:56:05;;;;;;;146.00;41.25;;;;;;;-1.26;34.70;150788.66;1781489;80;22494;-75
2021/01/20 05:58:39;;;;;;;147.13;42.85;;;;;;;-1.22;34.78;150800.36;1780155;80;21780;-72
2021/01/20 06:01:12;;;;;;;123.58;37.05;;;;;;;-1.15;35.00;150818.47;1763796;80;21309;-75
2021/01/20 06:03:46;;;;;;;153.57;41.80;;;;;;;-0.93;34.93;150874.20;1723095;82;21289;-75
2021/01/20 06:06:19;;;;;;;150.87;42.98;;;;;;;-0.73;34.89;150927.31;1727109;83;21218;-73
2021/01/20 06:08:52;;;;;;;134.82;40.55;;;;;;;-0.69;34.59;150938.97;1731954;82;21724;-72
2021/01/20 06:11:25;;;;;;;125.97;38.95;;;;;;;-0.65;34.58;150949.36;1693418;82;21296;-73
2021/01/20 06:13:58;;;;;;;132.85;39.95;;;;;;;-0.75;34.77;150923.44;1712521;83;21882;-80
2021/01/20 06:16:31;;;;;;;166.70;43.42;;;;;;;-0.86;34.69;150893.61;1734970;80;21341;-78
2021/01/20 06:19:10;;;;;;;128.90;37.38;;;;;;;-0.88;34.86;150888.47;1757655;80;21281;-80
2021/01/20 06:21:44;;;;;;;165.40;44.27;;;;;;;-0.89;34.99;150887.14;1764635;80;21269;-77
2021/01/20 06:24:43;;;;;;;159.30;42.93;;;;;;;-0.87;35.04;150892.34;1757767;80;21812;-77
2021/01/20 06:27:33;;;;;;;148.87;41.55;;;;;;;-0.80;35.03;150909.19;1755949;79;21678;-76
2021/01/20 06:30:21;;;;;;;152.07;42.03;;;;;;;-0.62;34.98;150955.83;1756195;80;21815;-77
2021/01/20 06:32:54;;;;;;;124.02;40.65;;;;;;;-0.58;34.86;150966.22;1758880;80;21725;-77
2021/01/20 06:35:47;;;;;;;182.35;47.83;;;;;;;-0.58;35.00;150967.50;1759471;80;21198;-75
2021/01/20 06:38:35;;;;;;;156.97;44.95;;;;;;;-0.49;35.23;150990.88;1760975;80;21386;-79
2021/01/20 06:41:11;;;;;;;165.92;46.92;;;;;;;-0.32;35.45;151033.66;1756443;80;21379;-77
2021/01/20 06:43:47;;;;;;;145.92;45.20;;;;;;;-0.21;35.35;151063.47;1765654;80;21384;-76
2021/01/20 06:46:27;;;;;;;160.75;50.55;;;;;;;-0.16;35.26;151076.45;1764728;80;21328;-75
2021/01/20 06:49:05;;;;;;;148.38;46.92;;;;;;;-0.13;35.07;151082.92;1763776;80;21399;-74
2021/01/20 06:51:38;;;;;;;150.42;49.48;;;;;;;-0.10;35.24;151092.00;1757941;80;21387;-77
2021/01/20 06:54:13;;;;;;;146.72;45.00;;;;;;;-0.01;35.37;151116.66;1755516;80;21967;-75
2021/01/20 06:56:52;;;;;;;168.47;51.45;;;;;;;0.14;35.34;151154.27;1756251;80;21375;-72
2021/01/20 06:59:31;;;;;;;145.45;44.18;;;;;;;0.22;35.64;151176.34;1755544;80;21277;-75
2021/01/20 07:02:11;;;;;;;105.55;36.73;;;;;;;0.41;35.80;151224.34;1756522;80;21328;-75
2021/01/20 07:04:53;;;;;;;111.05;35.83;;;;;;;0.56;35.97;151264.58;1755642;80;21423;-70
2021/01/20 07:07:56;;;;;;;104.80;34.78;;;;;;;0.70;36.08;151299.61;1761256;80;21276;-75
2021/01/20 07:10:31;;;;;;;103.10;30.15;;;;;;;0.76;35.87;151315.22;1757720;80;21206;-75
2021/01/20 07:13:18;;;;;;;109.97;35.52;;;;;;;0.72;35.63;151304.81;1756409;80;21265;-78
2021/01/20 07:15:53;;;;;;;89.77;31.50;;;;;;;0.66;35.82;151290.53;1757255;80;21375;-78
2021/01/20 07:18:27;;;;;;;87.75;30.82;;;;;;;0.78;36.21;151320.42;1758434;80;21786;-73
2021/01/20 07:21:01;;;;;;;85.50;31.48;;;;;;;0.89;36.02;151350.25;1755654;80;21934;-75
2021/01/20 07:23:35;;;;;;;84.87;27.32;;;;;;;0.97;36.10;151371.06;1763171;79;21220;-70
2021/01/20 07:26:08;;;;;;;72.45;25.80;;;;;;;1.10;36.41;151404.83;1758281;80;22518;-70
2021/01/20 07:28:42;;;;;;;74.58;25.37;;;;;;;1.24;36.25;151442.50;1769386;80;21380;-71
2021/01/20 07:31:16;;;;;;;61.15;19.60;;;;;;;1.32;36.21;151461.98;1764384;79;21213;-69
2021/01/20 07:33:53;;;;;;;78.70;27.90;;;;;;;1.23;35.82;151439.89;1770436;79;21241;-70
2021/01/20 07:36:27;;;;;;;71.82;24.75;;;;;;;1.27;35.93;151450.30;1771841;79;21804;-73
2021/01/20 07:38:59;;;;;;;55.58;20.08;;;;;;;1.37;36.00;151476.27;1745401;80;21217;-70
2021/01/20 07:41:32;;;;;;;65.45;25.10;;;;;;;1.36;35.76;151473.67;1757910;79;21220;-72
2021/01/20 07:44:07;;;;;;;73.62;25.92;;;;;;;1.55;36.29;151523.02;1765031;79;21807;-69
2021/01/20 07:46:39;;;;;;;67.05;24.67;;;;;;;1.85;36.51;151601.02;1762164;79;21264;-69
2021/01/20 07:49:16;;;;;;;66.15;22.62;;;;;;;2.33;36.09;151727.09;1761054;80;21324;-70
2021/01/20 07:52:11;;;;;;;57.17;22.00;;;;;;;2.47;35.97;151763.53;1765745;79;21221;-71
2021/01/20 07:54:51;;;;;;;69.12;23.80;;;;;;;2.95;36.79;151889.69;1763232;79;21224;-70
2021/01/20 07:57:24;;;;;;;77.90;27.62;;;;;;;3.80;36.81;152112.27;1769938;79;21275;-71
2021/01/20 08:00:02;;;;;;;77.50;28.05;;;;;;;4.71;36.29;152349.37;1764175;79;21194;-70
2021/01/20 08:02:49;;;;;;;85.90;29.95;;;;;;;5.26;36.32;152494.09;1779333;79;21286;-71
2021/01/20 08:05:22;;;;;;;85.53;30.88;;;;;;;5.66;35.53;152598.47;1772082;80;21357;-70
2021/01/20 08:07:58;;;;;;;83.82;27.60;;;;;;;5.95;35.75;152675.52;1797478;79;21166;-71
2021/01/20 08:10:31;;;;;;;67.50;25.12;;;;;;;6.25;34.68;152753.80;1751670;80;21367;-73
2021/01/20 08:13:04;;;;;;;61.73;24.18;;;;;;;6.63;34.37;152854.33;1781517;80;21360;-71
2021/01/20 08:15:40;;;;;;;55.85;22.37;;;;;;;6.97;34.43;152941.84;1782133;80;21363;-72
2021/01/20 08:18:16;;;;;;;67.90;24.70;;;;;;;6.96;33.96;152939.23;1777750;80;21202;-71
2021/01/20 08:20:49;;;;;;;62.45;21.65;;;;;;;6.97;33.99;152943.12;1719912;83;21307;-71
2021/01/20 08:23:53;;;;;;;58.65;23.30;;;;;;;7.28;34.67;153024.17;1703376;83;21201;-71
2021/01/20 08:26:29;;;;;;;61.75;23.65;;;;;;;7.88;35.00;153182.30;1742530;82;21327;-71
2021/01/20 08:29:13;;;;;;;54.88;20.82;;;;;;;8.60;34.84;153370.70;1744854;82;21229;-69
2021/01/20 08:31:45;;;;;;;69.60;22.77;;;;;;;8.76;33.94;153413.88;1717277;83;21367;-69
2021/01/20 08:34:25;;;;;;;65.95;22.40;;;;;;;8.54;33.14;153354.97;1774562;80;21197;-72
2021/01/20 08:37:03;;;;;;;55.52;20.45;;;;;;;8.32;33.41;153298.75;1776421;80;21816;-73
2021/01/20 08:39:39;;;;;;;64.05;22.98;;;;;;;8.36;34.04;153307.91;1774457;80;21879;-73
2021/01/20 08:42:34;;;;;;;61.65;22.95;;;;;;;8.72;35.80;153402.09;1771546;79;21930;-69
2021/01/20 08:45:10;;;;;;;57.55;21.77;;;;;;;9.52;35.77;153614.16;1777145;79;21217;-68
2021/01/20 08:48:05;;;;;;;60.78;23.32;;;;;;;10.17;35.69;153784.47;1780113;79;21344;-72
2021/01/20 08:50:47;;;;;;;61.45;26.50;;;;;;;10.26;33.18;153809.37;1780487;80;21210;-70
2021/01/20 08:53:28;;;;;;;60.90;24.12;;;;;;;10.46;34.19;153861.78;1787277;79;21210;-69
2021/01/20 08:56:02;;;;;;;55.48;22.02;;;;;;;10.76;34.69;153940.45;1776358;79;21209;-70
2021/01/20 08:58:35;;;;;;;55.28;21.10;;;;;;;11.08;34.52;154024.36;1773684;79;21872;-76
2021/01/20 09:01:11;;;;;;;50.58;20.88;;;;;;;11.24;34.05;154066.30;1733933;82;21223;-79
2021/01/20 09:03:57;;;;;;;52.33;22.17;;;;;;;11.18;32.81;154050.58;1728340;83;21380;-76
2021/01/20 09:06:30;;;;;;;61.55;23.98;;;;;;;10.90;33.07;153977.12;1722764;81;21217;-82
2021/01/20 09:09:03;;;;;;;55.85;20.40;;;;;;;10.74;34.12;153933.86;1710540;83;21921;-77
2021/01/20 09:11:40;;;;;;;50.33;18.82;;;;;;;11.02;34.17;154008.59;1774323;80;21363;-85
2021/01/20 09:14:13;;;;;;;51.60;20.08;;;;;;;11.02;31.64;154008.59;1758329;80;21226;-78
2021/01/20 09:16:46;;;;;;;51.18;19.02;;;;;;;11.41;32.41;154110.91;1774501;80;21266;-80
2021/01/20 09:19:20;;;;;;;46.98;18.30;;;;;;;11.44;33.04;154120.09;1769801;80;21788;-79
2021/01/20 09:21:55;;;;;;;52.53;21.33;;;;;;;10.93;30.66;153985.00;1773065;80;21340;-80
2021/01/20 09:24:38;;;;;;;45.12;17.27;;;;;;;10.85;33.41;153964.05;1768132;80;21356;-79
2021/01/20 09:27:11;;;;;;;40.98;17.92;;;;;;;10.60;31.00;153898.48;1764706;80;21787;-79
2021/01/20 09:29:44;;;;;;;46.60;19.52;;;;;;;10.39;31.13;153843.45;1757402;80;21328;-77
2021/01/20 09:32:17;;;;;;;48.50;19.37;;;;;;;10.87;33.50;153970.58;1779787;80;21174;-79
2021/01/20 09:34:51;;;;;;;47.20;18.92;;;;;;;11.23;31.49;154063.66;1769138;80;21277;-78
2021/01/20 09:37:24;;;;;;;44.75;18.60;;;;;;;11.44;31.96;154120.09;1770618;80;21847;-78
2021/01/20 09:39:57;;;;;;;49.75;19.37;;;;;;;11.51;31.16;154138.48;1764149;80;21186;-79
2021/01/20 09:42:30;;;;;;;41.92;18.23;;;;;;;12.21;34.26;154322.25;1772136;79;21322;-79
2021/01/20 09:45:09;;;;;;;42.88;17.60;;;;;;;12.61;32.32;154428.59;1778826;79;21352;-80
2021/01/20 09:47:51;;;;;;;40.90;16.48;;;;;;;13.08;34.49;154552.08;1766815;80;21701;-79
2021/01/20 09:50:26;;;;;;;44.88;20.08;;;;;;;13.67;34.44;154709.77;1771441;79;21888;-78
2021/01/20 09:53:02;;;;;;;39.53;17.02;;;;;;;14.41;31.27;154904.45;1773543;79;21186;-78
2021/01/20 09:55:37;;;;;;;42.45;18.50;;;;;;;14.40;30.31;154901.81;1769807;80;21355;-78
2021/01/20 09:58:10;;;;;;;49.70;21.93;;;;;;;14.11;31.47;154825.50;1766559;79;21264;-78
2021/01/20 10:00:46;;;;;;;44.90;20.92;;;;;;;13.85;32.26;154757.12;1766627;80;21348;-78
2021/01/20 10:06:13;;;;;;;41.98;17.23;;;;;;;13.98;30.50;154791.31;1775349;79;21198;-77
2021/01/20 10:08:49;;;;;;;38.00;16.65;;;;;;;14.28;31.74;154868.95;1751433;80;21812;-76
2021/01/20 10:11:23;;;;;;;37.48;15.38;;;;;;;14.37;33.01;154893.91;1781412;79;21193;-79
2021/01/20 10:14:00;;;;;;;35.52;14.87;;;;;;;14.37;31.35;154893.91;1771564;79;21179;-79
2021/01/20 10:16:33;;;;;;;38.28;17.85;;;;;;;14.45;31.28;154915.00;1771920;80;21879;-79
2021/01/20 10:19:06;;;;;;;37.38;16.37;;;;;;;14.83;34.34;155014.94;1782340;79;21222;-79
2021/01/20 10:21:39;;;;;;;36.77;16.30;;;;;;;15.29;31.17;155137.41;1771269;79;22277;-79
2021/01/20 10:24:12;;;;;;;33.98;17.00;;;;;;;15.06;32.18;155076.81;1778447;79;21367;-79
2021/01/20 10:26:45;;;;;;;43.75;18.12;;;;;;;15.28;32.25;155133.48;1780368;79;21274;-79
2021/01/20 10:29:18;;;;;;;35.45;15.70;;;;;;;15.74;34.06;155255.91;1779718;79;21355;-78
2021/01/20 10:31:51;;;;;;;39.58;15.30;;;;;;;16.11;31.97;155354.67;1769904;80;21773;-79
2021/01/20 10:34:24;;;;;;;33.40;14.35;;;;;;;15.85;32.92;155286.22;1775406;80;21340;-79
2021/01/20 10:36:58;;;;;;;40.92;18.67;;;;;;;16.13;33.62;155359.95;1775491;80;21150;-78
2021/01/20 10:39:33;;;;;;;42.98;16.45;;;;;;;16.20;34.27;155378.42;1777531;80;21185;-77
2021/01/20 10:42:14;;;;;;;34.27;14.53;;;;;;;16.85;35.69;155549.77;1774229;80;21390;-85
2021/01/20 10:44:47;;;;;;;30.32;15.03;;;;;;;17.14;33.41;155627.55;1777398;80;21315;-75
2021/01/20 10:47:25;;;;;;;74.65;28.98;;;;;;;16.66;30.77;155499.69;1753023;82;21574;-80
2021/01/20 10:49:58;;;;;;;55.52;26.82;;;;;;;16.20;32.45;155378.42;1753761;82;21792;-77
2021/01/20 10:52:31;;;;;;;37.98;17.15;;;;;;;16.13;34.51;155358.66;1756303;80;21332;-78
2021/01/20 10:55:04;;;;;;;28.73;13.58;;;;;;;16.16;33.26;155367.88;1744895;82;21161;-74
2021/01/20 10:57:37;;;;;;;30.50;14.90;;;;;;;15.38;29.29;155162.44;1732654;83;21233;-76
2021/01/20 11:00:14;;;;;;;34.27;14.10;;;;;;;14.76;30.95;154996.53;1773366;80;21335;-76
2021/01/20 11:02:46;;;;;;;28.77;13.95;;;;;;;14.20;31.31;154847.87;1753157;82;21328;-77
2021/01/20 11:05:20;;;;;;;34.67;14.80;;;;;;;13.78;31.30;154738.69;1753363;82;21806;-77
2021/01/20 11:07:52;;;;;;;34.58;16.67;;;;;;;13.52;32.39;154669.03;1733771;82;21228;-82
2021/01/20 11:10:45;;;;;;;39.60;20.10;;;;;;;13.34;31.51;154620.41;1725946;82;21177;-79
2021/01/20 11:13:18;;;;;;;46.20;21.95;;;;;;;13.25;33.23;154598.06;1743490;82;21364;-82
2021/01/20 11:15:51;;;;;;;34.55;16.37;;;;;;;13.38;31.50;154630.94;1721020;82;21213;-76
2021/01/20 11:18:25;;;;;;;43.20;23.22;;;;;;;13.73;31.64;154724.23;1722469;82;21170;-77
2021/01/20 11:20:58;;;;;;;39.33;17.77;;;;;;;14.07;33.63;154814.97;1724831;82;21724;-77
2021/01/20 11:23:37;;;;;;;32.20;14.45;;;;;;;13.87;30.96;154762.39;1743629;82;21169;-78
2021/01/20 11:26:11;;;;;;;29.42;14.60;;;;;;;13.22;30.65;154588.87;1732047;82;21224;-75
2021/01/20 11:28:44;;;;;;;34.50;14.87;;;;;;;13.17;32.48;154575.75;1723562;83;21173;-78
2021/01/20 11:31:17;;;;;;;43.92;17.45;;;;;;;13.01;30.70;154535.05;1681649;83;21335;-78
2021/01/20 11:33:50;;;;;;;36.90;17.32;;;;;;;13.30;32.98;154611.22;1680552;83;21214;-81
2021/01/20 11:36:23;;;;;;;47.88;24.00;;;;;;;13.25;31.64;154598.06;1674913;83;21202;-82
2021/01/20 11:38:58;;;;;;;65.00;35.03;;;;;;;13.20;32.98;154583.61;1667718;84;21265;-76
2021/01/20 11:41:34;;;;;;;41.30;17.95;;;;;;;13.19;34.28;154581.03;1676441;84;21396;-79
2021/01/20 11:44:07;;;;;;;43.20;19.65;;;;;;;13.28;31.39;154604.67;1674584;83;21427;-75
2021/01/20 11:46:39;;;;;;;36.65;15.53;;;;;;;13.65;34.59;154703.22;1675699;83;21340;-74
2021/01/20 11:49:15;;;;;;;36.42;15.18;;;;;;;13.84;31.46;154753.16;1669843;84;21257;-79
2021/01/20 11:51:49;;;;;;;33.35;14.95;;;;;;;13.42;31.92;154642.77;1682523;83;21986;-80
2021/01/20 11:54:22;;;;;;;36.55;16.37;;;;;;;13.38;32.57;154632.22;1674083;84;21187;-79